sensor_id;sensor_type;location;lat;lon;timestamp;temperature;humidity
20432;DHT22;10375;49.136;10.366;2023-06-22T00:00:15;17.70;99.90
20432;DHT22;10375;49.136;10.366;2023-06-22T00:02:42;17.60;99.90
20432;DHT22;10375;49.136;10.366;2023-06-22T00:05:10;17.60;99.90
20432;DHT22;10375;49.136;10.366;2023-06-22T00:07:37;17.60;99.90
20432;DHT22;10375;49.136;10.366;2023-06-22T00:10:04;17.60;99.90
20432;DHT22;10375;49.136;10.366;2023-06-22T00:12:31;17.60;99.90
20432;DHT22;10375;49.136;10.366;2023-06-22T00:14:59;17.50;99.90
20432;DHT22;10375;49.136;10.366;2023-06-22T00:17:26;17.50;99.90
20432;DHT22;10375;49.136;10.366;2023-06-22T00:19:53;17.40;99.90
20432;DHT22;10375;49.136;10.366;2023-06-22T00:22:22;17.40;99.90
20432;DHT22;10375;49.136;10.366;2023-06-22T00:24:56;17.30;99.90
20432;DHT22;10375;49.136;10.366;2023-06-22T00:27:23;17.40;99.90
20432;DHT22;10375;49.136;10.366;2023-06-22T00:29:50;17.40;99.90
20432;DHT22;10375;49.136;10.366;2023-06-22T00:32:18;17.40;99.90
20432;DHT22;10375;49.136;10.366;2023-06-22T00:34:46;17.40;99.90
20432;DHT22;10375;49.136;10.366;2023-06-22T00:37:13;17.30;99.90
20432;DHT22;10375;49.136;10.366;2023-06-22T00:39:40;17.30;99.90
20432;DHT22;10375;49.136;10.366;2023-06-22T00:42:07;17.40;99.90
20432;DHT22;10375;49.136;10.366;2023-06-22T00:44:37;17.40;99.90
20432;DHT22;10375;49.136;10.366;2023-06-22T00:47:04;17.50;99.90
20432;DHT22;10375;49.136;10.366;2023-06-22T00:49:33;17.50;99.90
20432;DHT22;10375;49.136;10.366;2023-06-22T00:52:00;17.50;99.90
20432;DHT22;10375;49.136;10.366;2023-06-22T00:54:28;17.50;99.90
20432;DHT22;10375;49.136;10.366;2023-06-22T00:56:55;17.40;99.90
20432;DHT22;10375;49.136;10.366;2023-06-22T00:59:24;17.30;99.90
20432;DHT22;10375;49.136;10.366;2023-06-22T01:01:53;17.30;99.90
20432;DHT22;10375;49.136;10.366;2023-06-22T01:04:23;17.30;99.90
20432;DHT22;10375;49.136;10.366;2023-06-22T01:07:04;17.30;99.90
20432;DHT22;10375;49.136;10.366;2023-06-22T01:09:38;17.30;99.90
20432;DHT22;10375;49.136;10.366;2023-06-22T01:12:09;17.30;99.90
20432;DHT22;10375;49.136;10.366;2023-06-22T01:14:46;17.10;99.90
20432;DHT22;10375;49.136;10.366;2023-06-22T01:17:15;17.10;99.90
20432;DHT22;10375;49.136;10.366;2023-06-22T01:19:44;17.10;99.90
20432;DHT22;10375;49.136;10.366;2023-06-22T01:22:16;17.10;99.90
20432;DHT22;10375;49.136;10.366;2023-06-22T01:25:13;17.10;99.90
20432;DHT22;10375;49.136;10.366;2023-06-22T01:28:03;17.10;99.90
20432;DHT22;10375;49.136;10.366;2023-06-22T01:30:32;17.10;99.90
20432;DHT22;10375;49.136;10.366;2023-06-22T01:33:03;17.10;99.90
20432;DHT22;10375;49.136;10.366;2023-06-22T01:35:32;17.00;99.90
20432;DHT22;10375;49.136;10.366;2023-06-22T01:38:00;17.00;99.90
20432;DHT22;10375;49.136;10.366;2023-06-22T01:40:28;17.00;99.90
20432;DHT22;10375;49.136;10.366;2023-06-22T01:42:57;16.90;99.90
20432;DHT22;10375;49.136;10.366;2023-06-22T01:45:25;16.90;99.90
20432;DHT22;10375;49.136;10.366;2023-06-22T01:47:54;16.90;99.90
20432;DHT22;10375;49.136;10.366;2023-06-22T01:50:21;16.90;99.90
20432;DHT22;10375;49.136;10.366;2023-06-22T01:52:48;16.90;99.90
20432;DHT22;10375;49.136;10.366;2023-06-22T01:55:15;16.90;99.90
20432;DHT22;10375;49.136;10.366;2023-06-22T01:57:42;16.90;99.90
20432;DHT22;10375;49.136;10.366;2023-06-22T02:00:13;16.80;99.90
20432;DHT22;10375;49.136;10.366;2023-06-22T02:02:57;16.70;99.90
20432;DHT22;10375;49.136;10.366;2023-06-22T02:05:36;16.70;99.90
20432;DHT22;10375;49.136;10.366;2023-06-22T02:08:15;16.70;99.90
20432;DHT22;10375;49.136;10.366;2023-06-22T02:10:46;16.70;99.90
20432;DHT22;10375;49.136;10.366;2023-06-22T02:13:14;16.70;99.90
20432;DHT22;10375;49.136;10.366;2023-06-22T02:15:42;16.70;99.90
20432;DHT22;10375;49.136;10.366;2023-06-22T02:18:10;16.70;99.90
20432;DHT22;10375;49.136;10.366;2023-06-22T02:20:38;16.70;99.90
20432;DHT22;10375;49.136;10.366;2023-06-22T02:23:07;16.70;99.90
20432;DHT22;10375;49.136;10.366;2023-06-22T02:25:35;16.70;99.90
20432;DHT22;10375;49.136;10.366;2023-06-22T02:28:03;16.80;99.90
20432;DHT22;10375;49.136;10.366;2023-06-22T02:30:32;16.80;99.90
20432;DHT22;10375;49.136;10.366;2023-06-22T02:32:59;16.80;99.90
20432;DHT22;10375;49.136;10.366;2023-06-22T02:35:28;16.80;99.90
20432;DHT22;10375;49.136;10.366;2023-06-22T02:37:59;16.80;99.90
20432;DHT22;10375;49.136;10.366;2023-06-22T02:40:31;16.70;99.90
20432;DHT22;10375;49.136;10.366;2023-06-22T02:42:58;16.80;99.90
20432;DHT22;10375;49.136;10.366;2023-06-22T02:45:29;16.70;99.90
20432;DHT22;10375;49.136;10.366;2023-06-22T02:47:56;16.70;99.90
20432;DHT22;10375;49.136;10.366;2023-06-22T02:50:24;16.70;99.90
20432;DHT22;10375;49.136;10.366;2023-06-22T02:52:51;16.70;99.90
20432;DHT22;10375;49.136;10.366;2023-06-22T02:55:19;16.70;99.90
20432;DHT22;10375;49.136;10.366;2023-06-22T02:57:46;16.70;99.90
20432;DHT22;10375;49.136;10.366;2023-06-22T03:00:14;16.70;99.90
20432;DHT22;10375;49.136;10.366;2023-06-22T03:02:45;16.70;99.90
20432;DHT22;10375;49.136;10.366;2023-06-22T03:05:14;16.70;99.90
20432;DHT22;10375;49.136;10.366;2023-06-22T03:07:41;16.70;99.90
20432;DHT22;10375;49.136;10.366;2023-06-22T03:10:10;16.70;99.90
20432;DHT22;10375;49.136;10.366;2023-06-22T03:12:38;16.80;99.90
20432;DHT22;10375;49.136;10.366;2023-06-22T03:15:10;16.80;99.90
20432;DHT22;10375;49.136;10.366;2023-06-22T03:17:39;16.80;99.90
20432;DHT22;10375;49.136;10.366;2023-06-22T03:20:07;16.80;99.90
20432;DHT22;10375;49.136;10.366;2023-06-22T03:22:39;16.80;99.90
20432;DHT22;10375;49.136;10.366;2023-06-22T03:25:10;16.80;99.90
20432;DHT22;10375;49.136;10.366;2023-06-22T03:27:37;16.90;99.90
20432;DHT22;10375;49.136;10.366;2023-06-22T03:30:06;16.90;99.90
20432;DHT22;10375;49.136;10.366;2023-06-22T03:32:34;16.90;99.90
20432;DHT22;10375;49.136;10.366;2023-06-22T03:35:01;16.90;99.90
20432;DHT22;10375;49.136;10.366;2023-06-22T03:37:29;16.90;99.90
20432;DHT22;10375;49.136;10.366;2023-06-22T03:39:56;17.00;99.90
20432;DHT22;10375;49.136;10.366;2023-06-22T03:42:23;17.20;99.90
20432;DHT22;10375;49.136;10.366;2023-06-22T03:44:50;17.40;99.90
20432;DHT22;10375;49.136;10.366;2023-06-22T03:47:18;17.50;99.90
20432;DHT22;10375;49.136;10.366;2023-06-22T03:49:45;17.70;99.90
20432;DHT22;10375;49.136;10.366;2023-06-22T03:52:12;17.70;99.90
20432;DHT22;10375;49.136;10.366;2023-06-22T03:54:39;17.80;99.90
20432;DHT22;10375;49.136;10.366;2023-06-22T03:57:06;17.90;99.90
20432;DHT22;10375;49.136;10.366;2023-06-22T03:59:34;17.90;99.90
20432;DHT22;10375;49.136;10.366;2023-06-22T04:02:02;17.90;99.90
20432;DHT22;10375;49.136;10.366;2023-06-22T04:04:29;18.00;99.90
20432;DHT22;10375;49.136;10.366;2023-06-22T04:06:57;18.00;99.90
20432;DHT22;10375;49.136;10.366;2023-06-22T04:09:24;18.00;99.90
20432;DHT22;10375;49.136;10.366;2023-06-22T04:11:51;18.10;99.90
20432;DHT22;10375;49.136;10.366;2023-06-22T04:14:19;18.10;99.90
20432;DHT22;10375;49.136;10.366;2023-06-22T04:16:46;18.20;99.90
20432;DHT22;10375;49.136;10.366;2023-06-22T04:19:13;18.30;99.90
20432;DHT22;10375;49.136;10.366;2023-06-22T04:21:43;18.40;99.90
20432;DHT22;10375;49.136;10.366;2023-06-22T04:24:15;18.50;99.90
20432;DHT22;10375;49.136;10.366;2023-06-22T04:26:43;18.70;99.90
20432;DHT22;10375;49.136;10.366;2023-06-22T04:29:12;18.60;99.90
20432;DHT22;10375;49.136;10.366;2023-06-22T04:31:40;18.70;99.90
20432;DHT22;10375;49.136;10.366;2023-06-22T04:34:08;18.70;99.90
20432;DHT22;10375;49.136;10.366;2023-06-22T04:36:37;18.80;99.90
20432;DHT22;10375;49.136;10.366;2023-06-22T04:39:09;18.90;99.90
20432;DHT22;10375;49.136;10.366;2023-06-22T04:41:40;19.00;99.90
20432;DHT22;10375;49.136;10.366;2023-06-22T04:44:11;19.20;99.90
20432;DHT22;10375;49.136;10.366;2023-06-22T04:46:39;19.30;99.90
20432;DHT22;10375;49.136;10.366;2023-06-22T04:49:08;19.40;99.90
20432;DHT22;10375;49.136;10.366;2023-06-22T04:51:41;19.50;99.90
20432;DHT22;10375;49.136;10.366;2023-06-22T04:54:09;19.60;99.90
20432;DHT22;10375;49.136;10.366;2023-06-22T04:56:36;19.70;99.90
20432;DHT22;10375;49.136;10.366;2023-06-22T04:59:03;19.80;99.90
20432;DHT22;10375;49.136;10.366;2023-06-22T05:01:31;20.00;99.90
20432;DHT22;10375;49.136;10.366;2023-06-22T05:03:58;20.10;99.90
20432;DHT22;10375;49.136;10.366;2023-06-22T05:06:28;20.30;99.90
20432;DHT22;10375;49.136;10.366;2023-06-22T05:08:56;21.20;99.90
20432;DHT22;10375;49.136;10.366;2023-06-22T05:11:27;22.70;99.90
20432;DHT22;10375;49.136;10.366;2023-06-22T05:13:55;24.30;99.90
20432;DHT22;10375;49.136;10.366;2023-06-22T05:16:22;25.50;99.90
20432;DHT22;10375;49.136;10.366;2023-06-22T05:18:53;25.70;99.90
20432;DHT22;10375;49.136;10.366;2023-06-22T05:21:26;26.50;99.90
20432;DHT22;10375;49.136;10.366;2023-06-22T05:23:54;26.50;99.60
20432;DHT22;10375;49.136;10.366;2023-06-22T05:26:21;26.80;98.50
20432;DHT22;10375;49.136;10.366;2023-06-22T05:28:49;27.30;96.90
20432;DHT22;10375;49.136;10.366;2023-06-22T05:31:17;27.40;96.70
20432;DHT22;10375;49.136;10.366;2023-06-22T05:33:47;27.90;95.80
20432;DHT22;10375;49.136;10.366;2023-06-22T05:36:15;28.70;94.10
20432;DHT22;10375;49.136;10.366;2023-06-22T05:38:42;28.60;93.70
20432;DHT22;10375;49.136;10.366;2023-06-22T05:41:09;28.60;93.90
20432;DHT22;10375;49.136;10.366;2023-06-22T05:43:37;29.70;92.30
20432;DHT22;10375;49.136;10.366;2023-06-22T05:46:04;29.60;91.80
20432;DHT22;10375;49.136;10.366;2023-06-22T05:48:32;29.10;92.30
20432;DHT22;10375;49.136;10.366;2023-06-22T05:50:59;29.00;92.00
20432;DHT22;10375;49.136;10.366;2023-06-22T05:53:26;29.40;91.70
20432;DHT22;10375;49.136;10.366;2023-06-22T05:55:53;29.30;92.00
20432;DHT22;10375;49.136;10.366;2023-06-22T05:58:20;30.20;90.70
20432;DHT22;10375;49.136;10.366;2023-06-22T06:00:48;31.00;88.30
20432;DHT22;10375;49.136;10.366;2023-06-22T06:03:15;30.80;88.40
20432;DHT22;10375;49.136;10.366;2023-06-22T06:05:44;30.50;89.00
20432;DHT22;10375;49.136;10.366;2023-06-22T06:08:12;30.40;89.10
20432;DHT22;10375;49.136;10.366;2023-06-22T06:10:39;31.30;86.40
20432;DHT22;10375;49.136;10.366;2023-06-22T06:13:06;31.80;85.20
20432;DHT22;10375;49.136;10.366;2023-06-22T06:15:34;32.80;83.40
20432;DHT22;10375;49.136;10.366;2023-06-22T06:18:02;33.00;81.30
20432;DHT22;10375;49.136;10.366;2023-06-22T06:20:32;32.70;80.40
20432;DHT22;10375;49.136;10.366;2023-06-22T06:23:00;32.00;83.20
20432;DHT22;10375;49.136;10.366;2023-06-22T06:25:27;32.90;81.60
20432;DHT22;10375;49.136;10.366;2023-06-22T06:27:54;33.30;78.60
20432;DHT22;10375;49.136;10.366;2023-06-22T06:30:21;33.30;79.50
20432;DHT22;10375;49.136;10.366;2023-06-22T06:32:49;33.60;79.20
20432;DHT22;10375;49.136;10.366;2023-06-22T06:35:17;34.00;77.90
20432;DHT22;10375;49.136;10.366;2023-06-22T06:37:47;33.10;77.20
20432;DHT22;10375;49.136;10.366;2023-06-22T06:40:18;32.90;78.10
20432;DHT22;10375;49.136;10.366;2023-06-22T06:42:47;32.80;80.10
20432;DHT22;10375;49.136;10.366;2023-06-22T06:45:21;33.70;78.00
20432;DHT22;10375;49.136;10.366;2023-06-22T06:47:52;34.10;76.00
20432;DHT22;10375;49.136;10.366;2023-06-22T06:50:20;34.00;76.20
20432;DHT22;10375;49.136;10.366;2023-06-22T06:52:47;33.30;77.70
20432;DHT22;10375;49.136;10.366;2023-06-22T06:55:14;33.50;75.80
20432;DHT22;10375;49.136;10.366;2023-06-22T06:57:42;33.70;76.00
20432;DHT22;10375;49.136;10.366;2023-06-22T07:00:11;34.20;73.10
20432;DHT22;10375;49.136;10.366;2023-06-22T07:02:44;34.50;74.80
20432;DHT22;10375;49.136;10.366;2023-06-22T07:05:13;35.10;72.70
20432;DHT22;10375;49.136;10.366;2023-06-22T07:07:40;35.00;70.80
20432;DHT22;10375;49.136;10.366;2023-06-22T07:10:09;35.30;72.50
20432;DHT22;10375;49.136;10.366;2023-06-22T07:12:36;36.10;70.40
20432;DHT22;10375;49.136;10.366;2023-06-22T07:15:06;35.90;70.00
20432;DHT22;10375;49.136;10.366;2023-06-22T07:17:36;35.60;69.30
20432;DHT22;10375;49.136;10.366;2023-06-22T07:20:03;35.30;71.40
20432;DHT22;10375;49.136;10.366;2023-06-22T07:22:36;34.60;72.90
20432;DHT22;10375;49.136;10.366;2023-06-22T07:25:03;34.50;71.40
20432;DHT22;10375;49.136;10.366;2023-06-22T07:27:43;34.80;70.00
20432;DHT22;10375;49.136;10.366;2023-06-22T07:30:11;34.00;71.30
20432;DHT22;10375;49.136;10.366;2023-06-22T07:32:38;33.70;73.90
20432;DHT22;10375;49.136;10.366;2023-06-22T07:35:06;33.70;72.60
20432;DHT22;10375;49.136;10.366;2023-06-22T07:37:33;35.20;70.20
20432;DHT22;10375;49.136;10.366;2023-06-22T07:40:02;37.00;63.80
20432;DHT22;10375;49.136;10.366;2023-06-22T07:42:33;37.00;63.40
20432;DHT22;10375;49.136;10.366;2023-06-22T07:45:01;36.80;66.50
20432;DHT22;10375;49.136;10.366;2023-06-22T07:47:29;36.30;64.20
20432;DHT22;10375;49.136;10.366;2023-06-22T07:49:58;35.00;67.70
20432;DHT22;10375;49.136;10.366;2023-06-22T07:52:29;34.20;68.20
20432;DHT22;10375;49.136;10.366;2023-06-22T07:54:56;33.90;69.80
20432;DHT22;10375;49.136;10.366;2023-06-22T07:57:23;33.80;68.10
20432;DHT22;10375;49.136;10.366;2023-06-22T08:00:04;33.30;67.40
20432;DHT22;10375;49.136;10.366;2023-06-22T08:02:44;32.50;69.20
20432;DHT22;10375;49.136;10.366;2023-06-22T08:05:11;31.60;70.20
20432;DHT22;10375;49.136;10.366;2023-06-22T08:07:48;31.10;71.00
20432;DHT22;10375;49.136;10.366;2023-06-22T08:10:15;30.80;72.10
20432;DHT22;10375;49.136;10.366;2023-06-22T08:12:43;30.90;72.30
20432;DHT22;10375;49.136;10.366;2023-06-22T08:15:10;30.50;73.60
20432;DHT22;10375;49.136;10.366;2023-06-22T08:17:38;30.40;76.80
20432;DHT22;10375;49.136;10.366;2023-06-22T08:20:07;30.80;74.70
20432;DHT22;10375;49.136;10.366;2023-06-22T08:22:41;31.00;74.50
20432;DHT22;10375;49.136;10.366;2023-06-22T08:25:10;31.60;73.40
20432;DHT22;10375;49.136;10.366;2023-06-22T08:27:37;31.80;72.10
20432;DHT22;10375;49.136;10.366;2023-06-22T08:30:06;31.70;70.00
20432;DHT22;10375;49.136;10.366;2023-06-22T08:32:33;31.50;71.00
20432;DHT22;10375;49.136;10.366;2023-06-22T08:35:00;31.20;72.30
20432;DHT22;10375;49.136;10.366;2023-06-22T08:37:28;31.10;72.30
20432;DHT22;10375;49.136;10.366;2023-06-22T08:39:59;31.40;73.80
20432;DHT22;10375;49.136;10.366;2023-06-22T08:42:27;31.20;71.90
20432;DHT22;10375;49.136;10.366;2023-06-22T08:44:55;30.80;73.50
20432;DHT22;10375;49.136;10.366;2023-06-22T08:47:22;30.80;73.30
20432;DHT22;10375;49.136;10.366;2023-06-22T08:49:50;30.60;76.00
20432;DHT22;10375;49.136;10.366;2023-06-22T08:52:18;30.50;76.40
20432;DHT22;10375;49.136;10.366;2023-06-22T08:54:47;30.70;74.60
20432;DHT22;10375;49.136;10.366;2023-06-22T08:57:14;30.70;74.80
20432;DHT22;10375;49.136;10.366;2023-06-22T08:59:42;30.60;74.90
20432;DHT22;10375;49.136;10.366;2023-06-22T09:02:09;30.50;76.50
20432;DHT22;10375;49.136;10.366;2023-06-22T09:04:37;30.90;74.90
20432;DHT22;10375;49.136;10.366;2023-06-22T09:07:04;31.00;77.70
20432;DHT22;10375;49.136;10.366;2023-06-22T09:09:31;31.40;77.20
20432;DHT22;10375;49.136;10.366;2023-06-22T09:11:59;31.70;74.90
20432;DHT22;10375;49.136;10.366;2023-06-22T09:14:26;32.10;73.50
20432;DHT22;10375;49.136;10.366;2023-06-22T09:16:53;32.00;73.20
20432;DHT22;10375;49.136;10.366;2023-06-22T09:19:20;32.20;72.80
20432;DHT22;10375;49.136;10.366;2023-06-22T09:21:47;32.20;72.40
20432;DHT22;10375;49.136;10.366;2023-06-22T09:24:14;32.20;73.30
20432;DHT22;10375;49.136;10.366;2023-06-22T09:26:41;32.10;73.30
20432;DHT22;10375;49.136;10.366;2023-06-22T09:29:08;31.70;73.70
20432;DHT22;10375;49.136;10.366;2023-06-22T09:31:36;31.30;74.10
20432;DHT22;10375;49.136;10.366;2023-06-22T09:34:03;31.40;75.20
20432;DHT22;10375;49.136;10.366;2023-06-22T09:36:30;31.80;74.60
20432;DHT22;10375;49.136;10.366;2023-06-22T09:38:57;31.90;72.50
20432;DHT22;10375;49.136;10.366;2023-06-22T09:41:25;31.60;71.90
20432;DHT22;10375;49.136;10.366;2023-06-22T09:43:52;31.70;73.30
20432;DHT22;10375;49.136;10.366;2023-06-22T09:46:22;32.00;71.30
20432;DHT22;10375;49.136;10.366;2023-06-22T09:48:52;31.90;71.70
20432;DHT22;10375;49.136;10.366;2023-06-22T09:51:19;32.30;70.50
20432;DHT22;10375;49.136;10.366;2023-06-22T09:53:51;32.40;70.90
20432;DHT22;10375;49.136;10.366;2023-06-22T09:56:19;32.80;70.50
20432;DHT22;10375;49.136;10.366;2023-06-22T09:58:47;33.30;68.60
20432;DHT22;10375;49.136;10.366;2023-06-22T10:01:14;33.40;66.60
20432;DHT22;10375;49.136;10.366;2023-06-22T10:03:41;33.50;68.20
20432;DHT22;10375;49.136;10.366;2023-06-22T10:06:09;33.30;66.50
20432;DHT22;10375;49.136;10.366;2023-06-22T10:08:36;33.10;66.50
20432;DHT22;10375;49.136;10.366;2023-06-22T10:11:03;33.00;65.70
20432;DHT22;10375;49.136;10.366;2023-06-22T10:13:31;32.80;66.10
20432;DHT22;10375;49.136;10.366;2023-06-22T10:15:58;33.20;66.30
20432;DHT22;10375;49.136;10.366;2023-06-22T10:18:25;33.10;67.60
20432;DHT22;10375;49.136;10.366;2023-06-22T10:20:52;33.20;67.30
20432;DHT22;10375;49.136;10.366;2023-06-22T10:23:20;33.40;65.20
20432;DHT22;10375;49.136;10.366;2023-06-22T10:25:47;33.50;64.50
20432;DHT22;10375;49.136;10.366;2023-06-22T10:28:14;33.20;65.60
20432;DHT22;10375;49.136;10.366;2023-06-22T10:30:42;33.40;64.70
20432;DHT22;10375;49.136;10.366;2023-06-22T10:33:10;33.70;64.70
20432;DHT22;10375;49.136;10.366;2023-06-22T10:35:37;34.20;62.80
20432;DHT22;10375;49.136;10.366;2023-06-22T10:38:05;34.60;61.90
20432;DHT22;10375;49.136;10.366;2023-06-22T10:40:32;34.20;63.00
20432;DHT22;10375;49.136;10.366;2023-06-22T10:43:00;33.90;63.50
20432;DHT22;10375;49.136;10.366;2023-06-22T10:45:27;34.30;63.70
20432;DHT22;10375;49.136;10.366;2023-06-22T10:47:55;34.70;60.00
20432;DHT22;10375;49.136;10.366;2023-06-22T10:50:22;34.40;60.90
20432;DHT22;10375;49.136;10.366;2023-06-22T10:52:51;34.50;61.10
20432;DHT22;10375;49.136;10.366;2023-06-22T10:55:18;34.70;59.80
20432;DHT22;10375;49.136;10.366;2023-06-22T10:57:45;34.70;61.90
20432;DHT22;10375;49.136;10.366;2023-06-22T11:00:35;34.80;61.80
20432;DHT22;10375;49.136;10.366;2023-06-22T11:03:02;35.20;60.50
20432;DHT22;10375;49.136;10.366;2023-06-22T11:05:29;35.40;59.00
20432;DHT22;10375;49.136;10.366;2023-06-22T11:07:57;35.50;61.20
20432;DHT22;10375;49.136;10.366;2023-06-22T11:10:24;35.40;59.90
20432;DHT22;10375;49.136;10.366;2023-06-22T11:12:51;35.60;60.10
20432;DHT22;10375;49.136;10.366;2023-06-22T11:15:18;35.20;59.60
20432;DHT22;10375;49.136;10.366;2023-06-22T11:17:45;35.20;59.80
20432;DHT22;10375;49.136;10.366;2023-06-22T11:20:12;35.20;59.00
20432;DHT22;10375;49.136;10.366;2023-06-22T11:22:40;35.10;60.40
20432;DHT22;10375;49.136;10.366;2023-06-22T11:25:08;35.40;59.20
20432;DHT22;10375;49.136;10.366;2023-06-22T11:27:36;35.00;58.60
20432;DHT22;10375;49.136;10.366;2023-06-22T11:30:03;35.00;59.00
20432;DHT22;10375;49.136;10.366;2023-06-22T11:32:30;34.90;58.00
20432;DHT22;10375;49.136;10.366;2023-06-22T11:34:58;34.50;59.50
20432;DHT22;10375;49.136;10.366;2023-06-22T11:37:25;34.50;58.90
20432;DHT22;10375;49.136;10.366;2023-06-22T11:39:52;34.60;58.50
20432;DHT22;10375;49.136;10.366;2023-06-22T11:42:33;34.50;59.70
20432;DHT22;10375;49.136;10.366;2023-06-22T11:45:01;35.10;59.70
20432;DHT22;10375;49.136;10.366;2023-06-22T11:47:29;35.40;59.20
20432;DHT22;10375;49.136;10.366;2023-06-22T11:49:56;35.70;57.80
20432;DHT22;10375;49.136;10.366;2023-06-22T11:52:23;35.70;58.60
20432;DHT22;10375;49.136;10.366;2023-06-22T11:54:50;35.80;58.50
20432;DHT22;10375;49.136;10.366;2023-06-22T11:57:17;36.20;59.20
20432;DHT22;10375;49.136;10.366;2023-06-22T11:59:44;36.40;57.10
20432;DHT22;10375;49.136;10.366;2023-06-22T12:02:11;36.30;56.50
20432;DHT22;10375;49.136;10.366;2023-06-22T12:04:38;35.40;57.30
20432;DHT22;10375;49.136;10.366;2023-06-22T12:07:06;35.20;57.90
20432;DHT22;10375;49.136;10.366;2023-06-22T12:09:33;35.80;59.40
20432;DHT22;10375;49.136;10.366;2023-06-22T12:12:00;36.10;57.30
20432;DHT22;10375;49.136;10.366;2023-06-22T12:14:27;36.40;57.00
20432;DHT22;10375;49.136;10.366;2023-06-22T12:16:56;36.70;57.20
20432;DHT22;10375;49.136;10.366;2023-06-22T12:19:23;36.60;56.30
20432;DHT22;10375;49.136;10.366;2023-06-22T12:21:50;36.00;58.20
20432;DHT22;10375;49.136;10.366;2023-06-22T12:24:17;35.40;59.70
20432;DHT22;10375;49.136;10.366;2023-06-22T12:26:44;35.70;58.30
20432;DHT22;10375;49.136;10.366;2023-06-22T12:29:12;35.90;57.40
20432;DHT22;10375;49.136;10.366;2023-06-22T12:31:39;36.00;57.30
20432;DHT22;10375;49.136;10.366;2023-06-22T12:34:06;36.00;59.40
20432;DHT22;10375;49.136;10.366;2023-06-22T12:36:33;36.20;57.20
20432;DHT22;10375;49.136;10.366;2023-06-22T12:39:00;36.30;58.10
20432;DHT22;10375;49.136;10.366;2023-06-22T12:41:28;36.30;55.90
20432;DHT22;10375;49.136;10.366;2023-06-22T12:43:55;36.50;56.70
20432;DHT22;10375;49.136;10.366;2023-06-22T12:46:22;36.10;57.80
20432;DHT22;10375;49.136;10.366;2023-06-22T12:48:49;35.90;57.70
20432;DHT22;10375;49.136;10.366;2023-06-22T12:51:22;35.90;58.40
20432;DHT22;10375;49.136;10.366;2023-06-22T12:53:50;35.40;58.10
20432;DHT22;10375;49.136;10.366;2023-06-22T12:56:17;35.00;59.50
20432;DHT22;10375;49.136;10.366;2023-06-22T12:58:44;34.50;59.10
20432;DHT22;10375;49.136;10.366;2023-06-22T13:01:11;33.90;60.40
20432;DHT22;10375;49.136;10.366;2023-06-22T13:03:38;33.60;60.80
20432;DHT22;10375;49.136;10.366;2023-06-22T13:06:05;33.50;63.10
20432;DHT22;10375;49.136;10.366;2023-06-22T13:08:33;33.40;61.50
20432;DHT22;10375;49.136;10.366;2023-06-22T13:11:20;33.40;61.40
20432;DHT22;10375;49.136;10.366;2023-06-22T13:13:47;33.20;62.20
20432;DHT22;10375;49.136;10.366;2023-06-22T13:16:14;33.20;63.00
20432;DHT22;10375;49.136;10.366;2023-06-22T13:18:41;33.40;61.00
20432;DHT22;10375;49.136;10.366;2023-06-22T13:21:08;33.40;61.80
20432;DHT22;10375;49.136;10.366;2023-06-22T13:23:35;33.70;61.90
20432;DHT22;10375;49.136;10.366;2023-06-22T13:26:02;34.10;62.40
20432;DHT22;10375;49.136;10.366;2023-06-22T13:28:29;34.50;59.60
20432;DHT22;10375;49.136;10.366;2023-06-22T13:30:57;34.80;61.00
20432;DHT22;10375;49.136;10.366;2023-06-22T13:33:24;35.30;60.00
20432;DHT22;10375;49.136;10.366;2023-06-22T13:35:51;35.50;58.20
20432;DHT22;10375;49.136;10.366;2023-06-22T13:38:19;35.60;58.80
20432;DHT22;10375;49.136;10.366;2023-06-22T13:40:46;35.50;59.10
20432;DHT22;10375;49.136;10.366;2023-06-22T13:43:14;35.50;59.30
20432;DHT22;10375;49.136;10.366;2023-06-22T13:45:42;35.40;59.50
20432;DHT22;10375;49.136;10.366;2023-06-22T13:48:10;35.30;61.50
20432;DHT22;10375;49.136;10.366;2023-06-22T13:50:37;35.30;59.10
20432;DHT22;10375;49.136;10.366;2023-06-22T13:53:04;35.20;59.30
20432;DHT22;10375;49.136;10.366;2023-06-22T13:55:31;35.20;60.10
20432;DHT22;10375;49.136;10.366;2023-06-22T13:57:58;35.20;58.00
20432;DHT22;10375;49.136;10.366;2023-06-22T14:00:25;34.90;59.70
20432;DHT22;10375;49.136;10.366;2023-06-22T14:02:55;34.90;61.50
20432;DHT22;10375;49.136;10.366;2023-06-22T14:05:22;34.80;60.40
20432;DHT22;10375;49.136;10.366;2023-06-22T14:07:49;34.70;59.70
20432;DHT22;10375;49.136;10.366;2023-06-22T14:10:16;34.60;60.80
20432;DHT22;10375;49.136;10.366;2023-06-22T14:12:43;34.50;61.10
20432;DHT22;10375;49.136;10.366;2023-06-22T14:15:11;34.40;61.20
20432;DHT22;10375;49.136;10.366;2023-06-22T14:17:38;34.30;61.60
20432;DHT22;10375;49.136;10.366;2023-06-22T14:20:06;34.50;61.10
20432;DHT22;10375;49.136;10.366;2023-06-22T14:22:35;34.60;61.30
20432;DHT22;10375;49.136;10.366;2023-06-22T14:25:04;34.80;61.30
20432;DHT22;10375;49.136;10.366;2023-06-22T14:27:31;35.20;63.00
20432;DHT22;10375;49.136;10.366;2023-06-22T14:29:58;35.20;58.90
20432;DHT22;10375;49.136;10.366;2023-06-22T14:32:27;35.20;59.70
20432;DHT22;10375;49.136;10.366;2023-06-22T14:34:56;35.20;60.00
20432;DHT22;10375;49.136;10.366;2023-06-22T14:37:23;35.20;60.60
20432;DHT22;10375;49.136;10.366;2023-06-22T14:39:51;35.20;60.70
20432;DHT22;10375;49.136;10.366;2023-06-22T14:42:18;35.10;59.00
20432;DHT22;10375;49.136;10.366;2023-06-22T14:44:45;34.80;59.60
20432;DHT22;10375;49.136;10.366;2023-06-22T14:47:12;34.50;59.80
20432;DHT22;10375;49.136;10.366;2023-06-22T14:49:39;34.50;61.10
20432;DHT22;10375;49.136;10.366;2023-06-22T14:52:08;34.70;59.90
20432;DHT22;10375;49.136;10.366;2023-06-22T14:54:35;35.00;60.00
20432;DHT22;10375;49.136;10.366;2023-06-22T14:57:02;35.20;59.60
20432;DHT22;10375;49.136;10.366;2023-06-22T14:59:29;35.10;59.00
20432;DHT22;10375;49.136;10.366;2023-06-22T15:01:56;34.70;59.70
20432;DHT22;10375;49.136;10.366;2023-06-22T15:04:23;34.40;60.20
20432;DHT22;10375;49.136;10.366;2023-06-22T15:06:50;34.30;61.20
20432;DHT22;10375;49.136;10.366;2023-06-22T15:09:17;34.20;60.60
20432;DHT22;10375;49.136;10.366;2023-06-22T15:11:44;34.30;60.40
20432;DHT22;10375;49.136;10.366;2023-06-22T15:14:13;34.20;60.10
20432;DHT22;10375;49.136;10.366;2023-06-22T15:16:41;34.30;59.70
20432;DHT22;10375;49.136;10.366;2023-06-22T15:19:08;34.40;59.80
20432;DHT22;10375;49.136;10.366;2023-06-22T15:21:36;34.50;59.00